Blairsville, Illinois
Current Conditions -  °F | °C
As of 2:55 AM on Monday 20 Oct 2014 (Local Time) from KMWA Reporting Station
Broken Clouds Broken Clouds  
Wind Chill: 46°   Ceiling: 11000
Heat Index: 48°   Visibility: 10mi
Dew Point: 46°   Wind: 5mph
Humidity: 93%   Direction: 190°S
Pressure: 30.05"   Gusts: NA
Location:  37.7927°N, 89.0997°W
Report Text: KMWA 200755Z AUTO 19004KT 10SM BKN110 09/08 A3005 RMK AO2
Loading
Personal Weather Stations






























Interactive Weather Map New forecast layout! Learn more

10-Day Weather Forecast

Advertisements
Track Severe Weather on mobile